createdAt,value
2017-07-02T00:01:40.372Z,9.17
2017-07-02T00:04:07.899Z,8.63
2017-07-02T00:06:35.415Z,9.83
2017-07-02T00:09:03.432Z,8.53
2017-07-02T00:11:30.943Z,8.43
2017-07-02T00:13:58.476Z,8.63
2017-07-02T00:16:26.265Z,8.60
2017-07-02T00:18:53.771Z,8.03
2017-07-02T00:21:21.294Z,10.43
2017-07-02T00:23:49.116Z,10.27
2017-07-02T00:26:16.639Z,9.77
2017-07-02T00:28:44.936Z,7.63
2017-07-02T00:31:12.918Z,8.37
2017-07-02T00:33:40.449Z,10.03
2017-07-02T00:36:07.973Z,9.57
2017-07-02T00:38:35.906Z,9.57
2017-07-02T00:41:03.419Z,10.20
2017-07-02T00:43:30.944Z,10.67
2017-07-02T00:45:58.897Z,9.77
2017-07-02T00:48:26.415Z,10.33
2017-07-02T00:50:54.701Z,11.40
2017-07-02T00:53:23.312Z,11.40
2017-07-02T00:55:50.849Z,10.73
2017-07-02T00:58:19.155Z,12.10
2017-07-02T01:00:46.974Z,12.60
2017-07-02T01:03:14.475Z,11.30
2017-07-02T01:05:41.990Z,12.13
2017-07-02T01:08:09.913Z,11.20
2017-07-02T01:10:37.422Z,11.80
2017-07-02T01:13:04.947Z,11.53
2017-07-02T01:15:32.915Z,12.03
2017-07-02T01:18:00.436Z,12.10
2017-07-02T01:20:27.976Z,12.37
2017-07-02T01:22:56.006Z,12.27
2017-07-02T01:25:23.531Z,13.97
2017-07-02T01:27:51.051Z,13.47
2017-07-02T01:30:18.884Z,15.80
2017-07-02T01:32:46.413Z,14.50
2017-07-02T01:35:14.697Z,16.00
2017-07-02T01:37:42.606Z,15.77
2017-07-02T01:40:10.114Z,18.33
2017-07-02T01:42:37.626Z,19.30
2017-07-02T01:45:05.580Z,21.47
2017-07-02T01:47:33.120Z,20.80
2017-07-02T01:50:00.629Z,22.13
2017-07-02T01:52:28.460Z,23.57
2017-07-02T01:54:55.979Z,22.50
2017-07-02T01:57:23.499Z,24.83
2017-07-02T01:59:51.288Z,21.80
2017-07-02T02:02:30.520Z,22.80
2017-07-02T02:04:58.367Z,23.27
2017-07-02T02:07:25.892Z,23.57
2017-07-02T02:09:53.416Z,22.00
2017-07-02T02:12:21.254Z,22.60
2017-07-02T02:14:48.769Z,22.73
2017-07-02T02:17:17.046Z,19.97
2017-07-02T02:19:45.042Z,20.00
2017-07-02T02:22:12.552Z,19.77
2017-07-02T02:24:40.062Z,20.97
2017-07-02T02:27:07.938Z,18.90
2017-07-02T02:29:35.452Z,20.37
2017-07-02T02:32:03.747Z,20.00
2017-07-02T02:34:31.632Z,20.90
2017-07-02T02:36:59.142Z,22.07
2017-07-02T02:39:26.654Z,17.80
2017-07-02T02:41:54.540Z,20.67
2017-07-02T02:44:22.062Z,18.70
2017-07-02T02:46:49.574Z,17.67
2017-07-02T02:49:17.510Z,19.80
2017-07-02T02:51:45.043Z,17.60
2017-07-02T02:54:12.557Z,18.40
2017-07-02T02:56:40.504Z,17.27
2017-07-02T02:59:08.027Z,18.03
2017-07-02T03:01:35.552Z,18.00
2017-07-02T03:04:03.386Z,17.77
2017-07-02T03:06:30.904Z,18.53
2017-07-02T03:08:58.409Z,17.60
2017-07-02T03:11:26.209Z,17.10
2017-07-02T03:13:53.729Z,17.60
2017-07-02T03:16:21.251Z,15.80
2017-07-02T03:18:49.861Z,17.80
2017-07-02T03:21:17.382Z,16.87
2017-07-02T03:23:44.883Z,16.23
2017-07-02T03:26:12.848Z,14.37
2017-07-02T03:28:40.367Z,14.70
2017-07-02T03:31:07.885Z,14.90
2017-07-02T03:33:35.751Z,13.53
2017-07-02T03:36:03.295Z,13.13
2017-07-02T03:38:30.815Z,13.57
2017-07-02T03:40:58.647Z,12.70
2017-07-02T03:43:26.167Z,11.67
2017-07-02T03:45:53.674Z,12.57
2017-07-02T03:48:21.546Z,11.30
2017-07-02T03:50:49.077Z,13.13
2017-07-02T03:53:16.578Z,10.73
2017-07-02T03:55:44.514Z,10.87
2017-07-02T03:58:12.046Z,10.47
2017-07-02T04:00:39.541Z,10.17
2017-07-02T04:03:07.399Z,11.47
2017-07-02T04:05:34.931Z,9.67
2017-07-02T04:08:02.442Z,10.30
2017-07-02T04:10:30.254Z,9.80
2017-07-02T04:12:57.767Z,11.27
2017-07-02T04:15:25.287Z,10.33
2017-07-02T04:17:53.213Z,10.40
2017-07-02T04:20:20.725Z,10.90
2017-07-02T04:22:48.240Z,11.67
2017-07-02T04:25:16.264Z,11.37
2017-07-02T04:27:43.795Z,11.17
2017-07-02T04:30:11.295Z,11.67
2017-07-02T04:32:39.162Z,11.33
2017-07-02T04:35:06.666Z,13.80
2017-07-02T04:37:34.179Z,13.50
2017-07-02T04:40:02.023Z,14.13
2017-07-02T04:42:29.546Z,15.53
2017-07-02T04:44:57.065Z,14.77
2017-07-02T04:47:24.904Z,15.60
2017-07-02T04:49:52.427Z,14.63
2017-07-02T04:52:19.949Z,15.93
2017-07-02T04:54:47.918Z,14.87
2017-07-02T04:57:15.451Z,14.37
2017-07-02T04:59:42.989Z,14.80
2017-07-02T05:02:10.915Z,14.90
2017-07-02T05:04:38.430Z,14.37
2017-07-02T05:07:05.949Z,15.60
2017-07-02T05:09:33.754Z,14.53
2017-07-02T05:12:01.270Z,14.20
2017-07-02T05:14:28.795Z,15.13
2017-07-02T05:16:56.615Z,16.00
2017-07-02T05:19:24.142Z,16.90
2017-07-02T05:21:51.655Z,18.10
2017-07-02T05:24:19.644Z,17.20
2017-07-02T05:26:47.157Z,18.97
2017-07-02T05:29:14.658Z,18.83
2017-07-02T05:31:42.650Z,19.23
2017-07-02T05:34:10.182Z,18.03
2017-07-02T05:36:37.693Z,19.47
2017-07-02T05:39:05.552Z,19.63
2017-07-02T05:41:33.064Z,19.20
2017-07-02T05:44:00.606Z,18.80
2017-07-02T05:46:28.421Z,18.40
2017-07-02T05:48:55.934Z,19.37
2017-07-02T05:51:23.459Z,19.23
2017-07-02T05:53:51.313Z,20.40
2017-07-02T05:56:18.830Z,19.50
2017-07-02T05:58:46.348Z,17.10
2017-07-02T06:01:14.186Z,20.17
2017-07-02T06:03:41.706Z,19.07
2017-07-02T06:06:09.258Z,19.10
2017-07-02T06:08:37.054Z,18.63
2017-07-02T06:11:04.590Z,18.53
2017-07-02T06:13:32.874Z,18.67
2017-07-02T06:16:01.508Z,19.47
2017-07-02T06:18:29.040Z,19.23
2017-07-02T06:20:56.563Z,18.30
2017-07-02T06:23:24.371Z,18.40
2017-07-02T06:25:51.919Z,18.63
2017-07-02T06:28:19.445Z,18.07
2017-07-02T06:30:47.283Z,18.73
2017-07-02T06:33:14.806Z,18.10
2017-07-02T06:35:42.337Z,16.93
2017-07-02T06:38:10.162Z,14.03
2017-07-02T06:40:37.686Z,15.23
2017-07-02T06:43:05.221Z,14.50
2017-07-02T06:45:33.062Z,13.37
2017-07-02T06:48:00.610Z,13.90
2017-07-02T06:50:28.124Z,12.87
2017-07-02T06:52:56.687Z,12.93
2017-07-02T06:55:24.205Z,12.70
2017-07-02T06:57:51.731Z,12.00
2017-07-02T07:00:20.370Z,14.00
2017-07-02T07:02:47.890Z,13.03
2017-07-02T07:05:16.166Z,12.27
2017-07-02T07:07:44.886Z,10.67
2017-07-02T07:10:12.405Z,11.10
2017-07-02T07:12:40.706Z,11.50
2017-07-02T07:15:08.605Z,10.53
2017-07-02T07:17:36.125Z,11.17
2017-07-02T07:20:03.631Z,11.30
2017-07-02T07:22:31.587Z,10.90
2017-07-02T07:24:59.111Z,14.27
2017-07-02T07:27:26.609Z,10.70
2017-07-02T07:29:54.469Z,10.83
2017-07-02T07:32:22.000Z,10.50
2017-07-02T07:34:49.548Z,10.53
2017-07-02T07:37:17.580Z,11.37
2017-07-02T07:39:45.096Z,10.63
2017-07-02T07:42:13.438Z,10.63
2017-07-02T07:44:41.240Z,10.50
2017-07-02T07:47:08.765Z,10.37
2017-07-02T07:49:36.280Z,10.13
2017-07-02T07:52:04.162Z,11.07
2017-07-02T07:54:31.674Z,11.73
2017-07-02T07:56:59.199Z,11.30
2017-07-02T07:59:26.990Z,10.33
2017-07-02T08:01:54.530Z,10.10
2017-07-02T08:04:22.043Z,10.17
2017-07-02T08:06:49.912Z,10.17
2017-07-02T08:09:17.457Z,10.13
2017-07-02T08:11:44.953Z,9.60
2017-07-02T08:14:12.811Z,11.00
2017-07-02T08:16:40.327Z,10.20
2017-07-02T08:19:07.830Z,9.93
2017-07-02T08:21:35.681Z,10.17
2017-07-02T08:24:03.202Z,11.00
2017-07-02T08:26:30.740Z,10.87
2017-07-02T08:28:58.609Z,11.30
2017-07-02T08:31:26.116Z,10.33
2017-07-02T08:33:53.647Z,10.80
2017-07-02T08:36:22.389Z,11.10
2017-07-02T08:38:49.930Z,11.17
2017-07-02T08:41:17.450Z,10.60
2017-07-02T08:43:45.254Z,10.30
2017-07-02T08:46:12.770Z,11.10
2017-07-02T08:48:40.310Z,10.70
2017-07-02T08:51:08.226Z,11.47
2017-07-02T08:53:36.511Z,12.63
2017-07-02T08:56:04.022Z,12.53
2017-07-02T08:58:31.969Z,10.80
2017-07-02T09:00:59.502Z,11.10
2017-07-02T09:03:27.020Z,12.87
2017-07-02T09:05:54.853Z,10.10
2017-07-02T09:08:22.372Z,10.30
2017-07-02T09:10:49.920Z,10.50
2017-07-02T09:13:17.837Z,12.63
2017-07-02T09:15:45.366Z,10.60
2017-07-02T09:18:12.889Z,10.00
2017-07-02T09:20:40.825Z,9.20
2017-07-02T09:23:08.349Z,9.40
2017-07-02T09:25:36.644Z,9.90
2017-07-02T09:28:04.547Z,8.83
2017-07-02T09:30:32.057Z,9.30
2017-07-02T09:32:59.583Z,9.30
2017-07-02T09:35:27.415Z,9.53
2017-07-02T09:37:54.928Z,9.43
2017-07-02T09:40:22.442Z,9.50
2017-07-02T09:42:50.312Z,9.67
2017-07-02T09:45:17.813Z,9.30
2017-07-02T09:47:45.331Z,8.70
2017-07-02T09:50:13.185Z,8.80
2017-07-02T09:52:40.700Z,7.57
2017-07-02T09:55:08.220Z,7.27
2017-07-02T09:57:36.028Z,6.77
2017-07-02T10:00:03.549Z,7.17
2017-07-02T10:02:31.070Z,7.00
2017-07-02T10:04:59.691Z,6.20
2017-07-02T10:07:27.222Z,6.33
2017-07-02T10:09:54.745Z,5.90
2017-07-02T10:12:22.558Z,6.00
2017-07-02T10:14:50.091Z,5.57
2017-07-02T10:17:18.376Z,6.30
2017-07-02T10:19:47.098Z,6.07
2017-07-02T10:22:14.609Z,5.50
2017-07-02T10:24:42.888Z,5.67
2017-07-02T10:27:11.512Z,5.77
2017-07-02T10:29:39.069Z,5.80
2017-07-02T10:32:06.581Z,6.50
2017-07-02T10:34:34.418Z,6.53
2017-07-02T10:37:01.923Z,7.03
2017-07-02T10:39:29.449Z,6.67
2017-07-02T10:41:57.433Z,6.50
2017-07-02T10:44:24.943Z,5.40
2017-07-02T10:46:52.474Z,5.33
2017-07-02T10:49:21.204Z,6.00
2017-07-02T10:51:48.728Z,6.20
2017-07-02T10:54:17.009Z,4.73
2017-07-02T10:56:44.898Z,5.47
2017-07-02T10:59:12.398Z,5.07
2017-07-02T11:01:39.921Z,4.50
2017-07-02T11:04:07.795Z,4.50
2017-07-02T11:06:35.330Z,4.40
2017-07-02T11:09:02.863Z,5.50
2017-07-02T11:11:30.704Z,5.53
2017-07-02T11:13:58.237Z,6.30
2017-07-02T11:16:25.774Z,5.43
2017-07-02T11:18:53.618Z,5.90
2017-07-02T11:21:21.182Z,4.97
2017-07-02T11:23:48.694Z,4.50
2017-07-02T11:26:16.667Z,4.17
2017-07-02T11:28:44.207Z,4.73
2017-07-02T11:31:11.725Z,5.80
2017-07-02T11:33:39.657Z,6.07
2017-07-02T11:36:07.175Z,6.17
2017-07-02T11:38:34.739Z,6.90
2017-07-02T11:41:02.644Z,5.90
2017-07-02T11:43:30.159Z,5.80
2017-07-02T11:45:57.674Z,6.97
2017-07-02T11:48:25.509Z,6.23
2017-07-02T11:50:53.053Z,6.63
2017-07-02T11:53:20.582Z,6.30
2017-07-02T11:55:48.382Z,5.27
2017-07-02T11:58:15.892Z,4.93
2017-07-02T12:00:43.397Z,5.77
2017-07-02T12:03:12.102Z,5.63
2017-07-02T12:05:39.617Z,5.13
2017-07-02T12:08:07.136Z,5.40
2017-07-02T12:10:35.012Z,5.60
2017-07-02T12:13:02.533Z,5.63
2017-07-02T12:15:30.039Z,5.20
2017-07-02T12:17:57.888Z,4.93
2017-07-02T12:20:25.411Z,4.90
2017-07-02T12:22:52.931Z,5.20
2017-07-02T12:25:20.777Z,4.63
2017-07-02T12:27:48.300Z,5.60
2017-07-02T12:30:16.583Z,4.43
2017-07-02T12:32:44.513Z,4.53
2017-07-02T12:35:12.023Z,4.50
2017-07-02T12:37:39.538Z,4.87
2017-07-02T12:40:07.383Z,4.07
2017-07-02T12:42:34.899Z,3.80
2017-07-02T12:45:02.429Z,4.50
2017-07-02T12:47:30.349Z,4.43
2017-07-02T12:49:57.863Z,4.77
2017-07-02T12:52:25.405Z,4.50
2017-07-02T12:54:53.233Z,4.90
2017-07-02T12:57:20.778Z,5.53
2017-07-02T12:59:48.327Z,5.13
2017-07-02T13:02:16.139Z,5.63
2017-07-02T13:04:43.656Z,4.53
2017-07-02T13:07:11.175Z,5.50
2017-07-02T13:09:39.013Z,5.10
2017-07-02T13:12:06.539Z,5.40
2017-07-02T13:14:34.074Z,3.83
2017-07-02T13:17:01.917Z,4.03
2017-07-02T13:19:29.444Z,3.60
2017-07-02T13:21:56.963Z,4.40
2017-07-02T13:24:24.768Z,3.77
2017-07-02T13:26:52.319Z,3.83
2017-07-02T13:29:19.835Z,3.63
2017-07-02T13:31:47.656Z,3.60
2017-07-02T13:34:15.158Z,3.80
2017-07-02T13:36:42.667Z,4.50
2017-07-02T13:39:10.564Z,3.60
2017-07-02T13:41:38.070Z,3.70
2017-07-02T13:44:05.585Z,3.33
2017-07-02T13:46:33.451Z,3.80
2017-07-02T13:49:00.985Z,4.00
2017-07-02T13:51:28.548Z,3.47
2017-07-02T13:53:56.438Z,3.00
2017-07-02T13:56:23.980Z,3.83
2017-07-02T13:58:51.499Z,3.10
2017-07-02T14:01:19.335Z,3.17
2017-07-02T14:03:46.866Z,3.40
2017-07-02T14:06:14.389Z,3.47
2017-07-02T14:08:42.205Z,3.60
2017-07-02T14:11:09.724Z,3.50
2017-07-02T14:13:37.252Z,3.30
2017-07-02T14:16:05.066Z,3.50
2017-07-02T14:18:32.605Z,3.70
2017-07-02T14:21:00.128Z,2.83
2017-07-02T14:23:27.946Z,3.30
2017-07-02T14:25:55.476Z,3.60
2017-07-02T14:28:23.000Z,3.63
2017-07-02T14:30:50.808Z,3.50
2017-07-02T14:33:18.365Z,4.20
2017-07-02T14:35:45.888Z,3.20
2017-07-02T14:38:13.753Z,3.40
2017-07-02T14:40:41.268Z,3.83
2017-07-02T14:43:08.808Z,3.60
2017-07-02T14:45:36.655Z,3.87
2017-07-02T14:48:04.192Z,3.90
2017-07-02T14:50:31.725Z,3.57
2017-07-02T14:53:00.451Z,3.40
2017-07-02T14:55:27.974Z,4.17
2017-07-02T14:57:56.253Z,4.07
2017-07-02T15:00:24.073Z,4.00
2017-07-02T15:02:51.596Z,4.30
2017-07-02T15:05:19.115Z,3.90
2017-07-02T15:07:46.938Z,3.97
2017-07-02T15:10:14.460Z,3.50
2017-07-02T15:12:41.985Z,3.87
2017-07-02T15:15:09.834Z,4.00
2017-07-02T15:17:37.367Z,4.10
2017-07-02T15:20:04.888Z,4.27
2017-07-02T15:22:32.711Z,3.70
2017-07-02T15:25:00.247Z,4.00
2017-07-02T15:27:27.795Z,3.80
2017-07-02T15:29:55.707Z,3.63
2017-07-02T15:32:23.220Z,4.03
2017-07-02T15:34:51.496Z,4.13
2017-07-02T15:37:19.411Z,4.53
2017-07-02T15:39:46.961Z,3.77
2017-07-02T15:42:14.485Z,4.23
2017-07-02T15:44:42.319Z,3.90
2017-07-02T15:47:09.830Z,4.07
2017-07-02T15:49:37.370Z,4.00
2017-07-02T15:52:05.170Z,5.30
2017-07-02T15:54:32.696Z,3.80
2017-07-02T15:57:00.196Z,4.57
2017-07-02T15:59:28.065Z,4.37
2017-07-02T16:01:55.587Z,3.93
2017-07-02T16:04:23.108Z,4.17
2017-07-02T16:06:50.960Z,4.30
2017-07-02T16:09:18.480Z,4.00
2017-07-02T16:11:46.007Z,4.50
2017-07-02T16:14:13.856Z,5.17
2017-07-02T16:16:41.368Z,4.80
2017-07-02T16:19:08.879Z,4.10
2017-07-02T16:21:36.793Z,4.77
2017-07-02T16:24:04.328Z,4.77
2017-07-02T16:26:31.831Z,4.20
2017-07-02T16:28:59.842Z,4.17
2017-07-02T16:31:27.392Z,4.40
2017-07-02T16:33:54.930Z,4.20
2017-07-02T16:36:22.756Z,4.00
2017-07-02T16:38:51.036Z,4.60
2017-07-02T16:41:18.540Z,5.03
2017-07-02T16:43:46.402Z,4.97
2017-07-02T16:46:13.912Z,4.50
2017-07-02T16:48:41.441Z,4.80
2017-07-02T16:51:09.312Z,5.97
2017-07-02T16:53:36.821Z,4.40
2017-07-02T16:56:05.108Z,5.20
2017-07-02T16:58:32.934Z,4.63
2017-07-02T17:01:00.472Z,4.73
2017-07-02T17:03:28.014Z,4.43
2017-07-02T17:05:55.840Z,5.40
2017-07-02T17:08:24.136Z,5.20
2017-07-02T17:10:51.664Z,4.87
2017-07-02T17:13:19.517Z,4.63
2017-07-02T17:15:47.053Z,5.40
2017-07-02T17:18:14.610Z,5.50
2017-07-02T17:20:42.479Z,5.00
2017-07-02T17:23:10.034Z,5.40
2017-07-02T17:25:37.544Z,5.50
2017-07-02T17:28:05.409Z,5.20
2017-07-02T17:30:32.968Z,5.57
2017-07-02T17:33:00.493Z,7.30
2017-07-02T17:35:28.327Z,6.40
2017-07-02T17:37:55.885Z,6.17
2017-07-02T17:40:23.400Z,8.13
2017-07-02T17:42:51.273Z,6.00
2017-07-02T17:45:18.807Z,5.40
2017-07-02T17:47:46.333Z,5.50
2017-07-02T17:50:14.159Z,5.07
2017-07-02T17:52:41.670Z,5.80
2017-07-02T17:55:09.196Z,5.17
2017-07-02T17:57:37.122Z,5.40
2017-07-02T18:00:04.688Z,4.90
2017-07-02T18:02:32.204Z,5.47
2017-07-02T18:05:00.853Z,5.90
2017-07-02T18:07:28.364Z,6.20
2017-07-02T18:09:55.906Z,6.30
2017-07-02T18:12:24.546Z,5.90
2017-07-02T18:14:52.089Z,5.80
2017-07-02T18:17:19.645Z,7.53
2017-07-02T18:19:47.484Z,6.63
2017-07-02T18:22:15.810Z,6.67
2017-07-02T18:24:43.336Z,7.40
2017-07-02T18:27:11.240Z,7.40
2017-07-02T18:29:38.796Z,6.67
2017-07-02T18:32:06.542Z,7.03
2017-07-02T18:34:34.549Z,6.47
2017-07-02T18:37:02.050Z,6.73
2017-07-02T18:39:29.696Z,6.60
2017-07-02T18:41:58.308Z,7.50
2017-07-02T18:44:25.891Z,8.30
2017-07-02T18:46:53.476Z,8.27
2017-07-02T18:49:21.324Z,7.90
2017-07-02T18:51:48.873Z,8.53
2017-07-02T18:54:16.388Z,8.90
2017-07-02T18:56:45.027Z,9.30
2017-07-02T18:59:12.537Z,8.80
2017-07-02T19:01:40.731Z,9.23
2017-07-02T19:04:09.202Z,9.30
2017-07-02T19:06:36.806Z,8.03
2017-07-02T19:09:04.422Z,7.77
2017-07-02T19:11:32.404Z,7.83
2017-07-02T19:14:00.076Z,8.70
2017-07-02T19:16:27.630Z,7.63
2017-07-02T19:18:55.598Z,7.50
2017-07-02T19:21:23.184Z,8.30
2017-07-02T19:23:50.726Z,7.10
2017-07-02T19:26:18.654Z,7.93
2017-07-02T19:28:46.173Z,8.20
2017-07-02T19:31:13.716Z,8.80
2017-07-02T19:33:41.617Z,8.53
2017-07-02T19:36:09.197Z,7.60
2017-07-02T19:38:37.548Z,8.60
2017-07-02T19:41:05.869Z,8.20
2017-07-02T19:43:33.565Z,7.53
2017-07-02T19:46:01.108Z,7.60
2017-07-02T19:48:29.002Z,7.63
2017-07-02T19:50:56.527Z,7.43
2017-07-02T19:53:24.845Z,7.27
2017-07-02T19:55:52.685Z,6.60
2017-07-02T19:58:21.119Z,7.53
2017-07-02T20:00:48.742Z,7.50
2017-07-02T20:03:16.648Z,7.70
2017-07-02T20:05:44.305Z,7.50
2017-07-02T20:08:11.858Z,7.10
2017-07-02T20:10:39.808Z,7.43
2017-07-02T20:13:07.362Z,6.67
2017-07-02T20:15:34.903Z,7.20
2017-07-02T20:18:02.757Z,8.17
2017-07-02T20:20:30.285Z,7.60
2017-07-02T20:22:57.858Z,8.03
2017-07-02T20:25:25.781Z,7.60
2017-07-02T20:27:53.338Z,6.80
2017-07-02T20:30:20.880Z,7.53
2017-07-02T20:32:48.828Z,7.93
2017-07-02T20:35:16.369Z,7.80
2017-07-02T20:37:43.906Z,7.07
2017-07-02T20:40:11.796Z,7.30
2017-07-02T20:42:39.334Z,7.13
2017-07-02T20:45:06.855Z,6.90
2017-07-02T20:47:35.507Z,6.77
2017-07-02T20:50:03.045Z,8.00
2017-07-02T20:52:30.571Z,6.70
2017-07-02T20:54:59.144Z,7.13
2017-07-02T20:57:26.654Z,6.90
2017-07-02T20:59:54.174Z,7.20
2017-07-02T21:02:22.789Z,7.10
2017-07-02T21:04:50.306Z,7.43
2017-07-02T21:07:18.613Z,7.10
2017-07-02T21:09:46.564Z,7.27
2017-07-02T21:12:14.156Z,8.70
2017-07-02T21:14:41.685Z,9.40
2017-07-02T21:17:10.295Z,8.57
2017-07-02T21:19:37.813Z,7.60
2017-07-02T21:22:05.351Z,8.13
2017-07-02T21:24:33.197Z,8.47
2017-07-02T21:27:00.721Z,8.77
2017-07-02T21:29:28.221Z,8.70
2017-07-02T21:31:56.186Z,9.43
2017-07-02T21:34:23.731Z,9.27
2017-07-02T21:36:51.271Z,9.40
2017-07-02T21:39:19.123Z,9.10
2017-07-02T21:41:47.427Z,8.50
2017-07-02T21:44:14.948Z,9.50
2017-07-02T21:46:42.803Z,9.20
2017-07-02T21:49:10.317Z,10.63
2017-07-02T21:51:37.832Z,8.90
2017-07-02T21:54:05.661Z,9.40
2017-07-02T21:56:33.192Z,9.73
2017-07-02T21:59:00.708Z,10.07
2017-07-02T22:01:28.639Z,9.50
2017-07-02T22:03:56.234Z,8.97
2017-07-02T22:06:23.747Z,9.57
2017-07-02T22:08:51.575Z,10.47
2017-07-02T22:11:19.113Z,9.90
2017-07-02T22:13:46.652Z,9.30
2017-07-02T22:16:14.518Z,8.87
2017-07-02T22:18:42.055Z,8.33
2017-07-02T22:21:09.571Z,8.47
2017-07-02T22:23:37.513Z,9.30
2017-07-02T22:26:05.024Z,10.03
2017-07-02T22:28:33.307Z,9.00
2017-07-02T22:31:01.976Z,9.53
2017-07-02T22:33:29.491Z,8.20
2017-07-02T22:35:57.031Z,9.33
2017-07-02T22:38:24.844Z,8.73
2017-07-02T22:40:52.349Z,9.20
2017-07-02T22:43:19.857Z,8.63
2017-07-02T22:45:47.700Z,9.87
2017-07-02T22:48:15.222Z,10.43
2017-07-02T22:50:43.513Z,10.27
2017-07-02T22:53:11.504Z,8.50
2017-07-02T22:55:39.020Z,10.00
2017-07-02T22:58:07.315Z,9.60
2017-07-02T23:00:35.887Z,8.70
2017-07-02T23:03:03.416Z,9.30
2017-07-02T23:05:30.965Z,9.70
2017-07-02T23:07:58.830Z,9.23
2017-07-02T23:10:26.323Z,9.17
2017-07-02T23:12:53.845Z,10.07
2017-07-02T23:15:21.713Z,8.67
2017-07-02T23:17:49.240Z,10.37
2017-07-02T23:20:16.766Z,9.10
2017-07-02T23:22:44.698Z,9.27
2017-07-02T23:25:12.213Z,9.10
2017-07-02T23:27:40.511Z,8.73
2017-07-02T23:30:08.407Z,8.23
2017-07-02T23:32:35.925Z,7.53
2017-07-02T23:35:04.204Z,8.20
2017-07-02T23:37:32.821Z,8.03
2017-07-02T23:40:00.340Z,7.60
2017-07-02T23:42:27.876Z,7.97
2017-07-02T23:44:55.691Z,7.90
2017-07-02T23:47:23.207Z,7.50
2017-07-02T23:49:50.718Z,8.10
2017-07-02T23:52:18.510Z,6.87
2017-07-02T23:54:46.021Z,6.50
2017-07-02T23:57:14.321Z,7.40
2017-07-02T23:59:42.306Z,7.00
